sensor_id;sensor_type;location;lat;lon;timestamp;temperature;humidity
12632;DHT22;6381;45.748;12.106;2022-11-13T00:01:32;13.50;92.70
12632;DHT22;6381;45.748;12.106;2022-11-13T00:04:37;13.40;92.20
12632;DHT22;6381;45.748;12.106;2022-11-13T00:07:26;13.50;92.80
12632;DHT22;6381;45.748;12.106;2022-11-13T00:10:14;13.40;92.70
12632;DHT22;6381;45.748;12.106;2022-11-13T00:13:02;13.40;92.90
12632;DHT22;6381;45.748;12.106;2022-11-13T00:15:56;13.10;92.40
12632;DHT22;6381;45.748;12.106;2022-11-13T00:18:43;13.00;92.50
12632;DHT22;6381;45.748;12.106;2022-11-13T00:21:31;12.90;92.90
12632;DHT22;6381;45.748;12.106;2022-11-13T00:24:20;12.90;93.00
12632;DHT22;6381;45.748;12.106;2022-11-13T00:27:07;12.90;92.10
12632;DHT22;6381;45.748;12.106;2022-11-13T00:30:12;12.90;91.50
12632;DHT22;6381;45.748;12.106;2022-11-13T00:33:05;12.80;91.10
12632;DHT22;6381;45.748;12.106;2022-11-13T00:35:52;12.80;90.70
12632;DHT22;6381;45.748;12.106;2022-11-13T00:38:39;12.90;90.60
12632;DHT22;6381;45.748;12.106;2022-11-13T00:41:30;12.90;91.00
12632;DHT22;6381;45.748;12.106;2022-11-13T00:44:18;12.90;90.90
12632;DHT22;6381;45.748;12.106;2022-11-13T00:47:22;12.90;90.20
12632;DHT22;6381;45.748;12.106;2022-11-13T00:50:10;12.80;90.10
12632;DHT22;6381;45.748;12.106;2022-11-13T00:52:57;12.70;90.40
12632;DHT22;6381;45.748;12.106;2022-11-13T00:56:03;12.60;90.30
12632;DHT22;6381;45.748;12.106;2022-11-13T00:59:10;12.80;90.80
12632;DHT22;6381;45.748;12.106;2022-11-13T01:01:57;12.80;90.40
12632;DHT22;6381;45.748;12.106;2022-11-13T01:05:03;12.90;90.40
12632;DHT22;6381;45.748;12.106;2022-11-13T01:07:51;12.90;90.10
12632;DHT22;6381;45.748;12.106;2022-11-13T01:10:40;13.00;90.30
12632;DHT22;6381;45.748;12.106;2022-11-13T01:13:30;12.90;89.70
12632;DHT22;6381;45.748;12.106;2022-11-13T01:16:24;12.90;88.10
12632;DHT22;6381;45.748;12.106;2022-11-13T01:19:11;13.00;87.90
12632;DHT22;6381;45.748;12.106;2022-11-13T01:21:59;13.00;87.20
12632;DHT22;6381;45.748;12.106;2022-11-13T01:24:46;12.90;87.10
12632;DHT22;6381;45.748;12.106;2022-11-13T01:27:35;12.70;87.30
12632;DHT22;6381;45.748;12.106;2022-11-13T01:30:23;12.70;87.90
12632;DHT22;6381;45.748;12.106;2022-11-13T01:33:14;12.60;87.90
12632;DHT22;6381;45.748;12.106;2022-11-13T01:36:03;12.50;88.50
12632;DHT22;6381;45.748;12.106;2022-11-13T01:38:52;12.50;88.50
12632;DHT22;6381;45.748;12.106;2022-11-13T01:41:40;12.60;89.10
12632;DHT22;6381;45.748;12.106;2022-11-13T01:44:46;12.90;88.70
12632;DHT22;6381;45.748;12.106;2022-11-13T01:47:34;12.90;86.70
12632;DHT22;6381;45.748;12.106;2022-11-13T01:50:23;12.80;87.50
12632;DHT22;6381;45.748;12.106;2022-11-13T01:53:10;12.90;88.30
12632;DHT22;6381;45.748;12.106;2022-11-13T01:55:58;12.90;88.20
12632;DHT22;6381;45.748;12.106;2022-11-13T01:58:50;12.90;88.50
12632;DHT22;6381;45.748;12.106;2022-11-13T02:01:39;12.90;88.10
12632;DHT22;6381;45.748;12.106;2022-11-13T02:04:27;12.80;88.10
12632;DHT22;6381;45.748;12.106;2022-11-13T02:07:19;12.90;88.60
12632;DHT22;6381;45.748;12.106;2022-11-13T02:10:08;12.80;88.70
12632;DHT22;6381;45.748;12.106;2022-11-13T02:12:55;12.60;88.30
12632;DHT22;6381;45.748;12.106;2022-11-13T02:15:43;12.50;89.80
12632;DHT22;6381;45.748;12.106;2022-11-13T02:18:31;12.60;89.40
12632;DHT22;6381;45.748;12.106;2022-11-13T02:21:31;12.60;89.60
12632;DHT22;6381;45.748;12.106;2022-11-13T02:24:28;12.70;90.20
12632;DHT22;6381;45.748;12.106;2022-11-13T02:27:22;12.60;90.30
12632;DHT22;6381;45.748;12.106;2022-11-13T02:30:14;12.50;90.30
12632;DHT22;6381;45.748;12.106;2022-11-13T02:33:21;12.60;90.10
12632;DHT22;6381;45.748;12.106;2022-11-13T02:36:09;12.60;90.00
12632;DHT22;6381;45.748;12.106;2022-11-13T02:39:01;12.60;89.90
12632;DHT22;6381;45.748;12.106;2022-11-13T02:41:51;12.50;90.00
12632;DHT22;6381;45.748;12.106;2022-11-13T02:44:38;12.30;90.80
12632;DHT22;6381;45.748;12.106;2022-11-13T02:47:26;12.40;90.60
12632;DHT22;6381;45.748;12.106;2022-11-13T02:50:14;12.40;91.20
12632;DHT22;6381;45.748;12.106;2022-11-13T02:53:02;12.30;91.10
12632;DHT22;6381;45.748;12.106;2022-11-13T02:56:07;12.30;91.00
12632;DHT22;6381;45.748;12.106;2022-11-13T02:58:56;12.20;91.40
12632;DHT22;6381;45.748;12.106;2022-11-13T03:01:44;12.20;91.50
12632;DHT22;6381;45.748;12.106;2022-11-13T03:04:32;12.20;91.80
12632;DHT22;6381;45.748;12.106;2022-11-13T03:07:40;12.00;91.50
12632;DHT22;6381;45.748;12.106;2022-11-13T03:10:28;12.00;91.70
12632;DHT22;6381;45.748;12.106;2022-11-13T03:13:15;11.90;91.60
12632;DHT22;6381;45.748;12.106;2022-11-13T03:16:09;12.00;91.80
12632;DHT22;6381;45.748;12.106;2022-11-13T03:18:57;12.00;91.60
12632;DHT22;6381;45.748;12.106;2022-11-13T03:21:44;12.00;91.60
12632;DHT22;6381;45.748;12.106;2022-11-13T03:24:31;12.10;91.80
12632;DHT22;6381;45.748;12.106;2022-11-13T03:27:19;12.30;91.30
12632;DHT22;6381;45.748;12.106;2022-11-13T03:30:07;12.10;91.00
12632;DHT22;6381;45.748;12.106;2022-11-13T03:32:57;12.20;91.20
12632;DHT22;6381;45.748;12.106;2022-11-13T03:35:44;12.30;92.10
12632;DHT22;6381;45.748;12.106;2022-11-13T03:38:49;12.20;92.40
12632;DHT22;6381;45.748;12.106;2022-11-13T03:41:37;12.20;92.30
12632;DHT22;6381;45.748;12.106;2022-11-13T03:44:24;12.20;92.30
12632;DHT22;6381;45.748;12.106;2022-11-13T03:47:12;12.00;92.00
12632;DHT22;6381;45.748;12.106;2022-11-13T03:50:02;11.90;91.80
12632;DHT22;6381;45.748;12.106;2022-11-13T03:52:50;12.00;91.90
12632;DHT22;6381;45.748;12.106;2022-11-13T03:55:38;12.10;92.10
12632;DHT22;6381;45.748;12.106;2022-11-13T03:58:26;12.10;92.10
12632;DHT22;6381;45.748;12.106;2022-11-13T04:01:14;12.10;91.80
12632;DHT22;6381;45.748;12.106;2022-11-13T04:04:01;11.50;91.80
12632;DHT22;6381;45.748;12.106;2022-11-13T04:07:07;11.30;92.40
12632;DHT22;6381;45.748;12.106;2022-11-13T04:09:55;11.30;92.80
12632;DHT22;6381;45.748;12.106;2022-11-13T04:12:42;11.10;93.30
12632;DHT22;6381;45.748;12.106;2022-11-13T04:15:29;11.20;93.50
12632;DHT22;6381;45.748;12.106;2022-11-13T04:18:17;11.00;93.60
12632;DHT22;6381;45.748;12.106;2022-11-13T04:21:21;10.90;93.80
12632;DHT22;6381;45.748;12.106;2022-11-13T04:24:27;11.00;93.90
12632;DHT22;6381;45.748;12.106;2022-11-13T04:27:15;11.30;94.40
12632;DHT22;6381;45.748;12.106;2022-11-13T04:30:05;11.10;94.90
12632;DHT22;6381;45.748;12.106;2022-11-13T04:32:53;11.10;95.40
12632;DHT22;6381;45.748;12.106;2022-11-13T04:35:40;11.20;95.80
12632;DHT22;6381;45.748;12.106;2022-11-13T04:38:30;11.00;96.20
12632;DHT22;6381;45.748;12.106;2022-11-13T04:41:19;11.00;96.20
12632;DHT22;6381;45.748;12.106;2022-11-13T04:44:24;11.00;96.40
12632;DHT22;6381;45.748;12.106;2022-11-13T04:47:12;10.80;96.00
12632;DHT22;6381;45.748;12.106;2022-11-13T04:49:59;10.80;96.40
12632;DHT22;6381;45.748;12.106;2022-11-13T04:52:46;10.70;96.70
12632;DHT22;6381;45.748;12.106;2022-11-13T04:55:34;10.80;96.50
12632;DHT22;6381;45.748;12.106;2022-11-13T04:58:22;10.60;96.80
12632;DHT22;6381;45.748;12.106;2022-11-13T05:01:10;10.40;97.60
12632;DHT22;6381;45.748;12.106;2022-11-13T05:03:58;10.40;97.90
12632;DHT22;6381;45.748;12.106;2022-11-13T05:06:45;10.40;97.80
12632;DHT22;6381;45.748;12.106;2022-11-13T05:09:32;10.30;97.90
12632;DHT22;6381;45.748;12.106;2022-11-13T05:12:37;10.60;97.80
12632;DHT22;6381;45.748;12.106;2022-11-13T05:15:25;10.70;97.80
12632;DHT22;6381;45.748;12.106;2022-11-13T05:18:13;10.30;98.20
12632;DHT22;6381;45.748;12.106;2022-11-13T05:21:01;10.10;98.50
12632;DHT22;6381;45.748;12.106;2022-11-13T05:23:48;10.10;99.50
12632;DHT22;6381;45.748;12.106;2022-11-13T05:26:36;10.40;99.60
12632;DHT22;6381;45.748;12.106;2022-11-13T05:29:24;10.80;99.00
12632;DHT22;6381;45.748;12.106;2022-11-13T05:32:12;10.70;98.60
12632;DHT22;6381;45.748;12.106;2022-11-13T05:35:00;10.80;98.30
12632;DHT22;6381;45.748;12.106;2022-11-13T05:38:05;10.90;97.80
12632;DHT22;6381;45.748;12.106;2022-11-13T05:40:52;10.90;97.80
12632;DHT22;6381;45.748;12.106;2022-11-13T05:43:40;11.00;97.90
12632;DHT22;6381;45.748;12.106;2022-11-13T05:46:28;11.00;97.70
12632;DHT22;6381;45.748;12.106;2022-11-13T05:49:17;10.90;97.90
12632;DHT22;6381;45.748;12.106;2022-11-13T05:52:04;10.70;98.20
12632;DHT22;6381;45.748;12.106;2022-11-13T05:54:52;10.70;98.50
12632;DHT22;6381;45.748;12.106;2022-11-13T05:57:39;10.60;98.60
12632;DHT22;6381;45.748;12.106;2022-11-13T06:00:26;10.80;98.70
12632;DHT22;6381;45.748;12.106;2022-11-13T06:03:14;10.70;98.70
12632;DHT22;6381;45.748;12.106;2022-11-13T06:06:03;10.70;98.70
12632;DHT22;6381;45.748;12.106;2022-11-13T06:08:52;10.90;98.90
12632;DHT22;6381;45.748;12.106;2022-11-13T06:11:39;10.80;98.60
12632;DHT22;6381;45.748;12.106;2022-11-13T06:14:27;10.90;98.80
12632;DHT22;6381;45.748;12.106;2022-11-13T06:17:14;11.00;98.50
12632;DHT22;6381;45.748;12.106;2022-11-13T06:20:01;11.00;98.30
12632;DHT22;6381;45.748;12.106;2022-11-13T06:22:50;11.10;98.20
12632;DHT22;6381;45.748;12.106;2022-11-13T06:25:38;11.00;98.10
12632;DHT22;6381;45.748;12.106;2022-11-13T06:28:25;10.70;98.10
12632;DHT22;6381;45.748;12.106;2022-11-13T06:31:15;10.80;98.50
12632;DHT22;6381;45.748;12.106;2022-11-13T06:34:04;11.00;98.10
12632;DHT22;6381;45.748;12.106;2022-11-13T06:37:09;9.30;97.50
12632;DHT22;6381;45.748;12.106;2022-11-13T06:39:58;11.00;98.10
12632;DHT22;6381;45.748;12.106;2022-11-13T06:42:45;11.10;98.00
12632;DHT22;6381;45.748;12.106;2022-11-13T06:45:32;11.10;97.70
12632;DHT22;6381;45.748;12.106;2022-11-13T06:48:20;11.10;97.50
12632;DHT22;6381;45.748;12.106;2022-11-13T06:51:12;11.10;97.50
12632;DHT22;6381;45.748;12.106;2022-11-13T06:54:00;11.10;97.50
12632;DHT22;6381;45.748;12.106;2022-11-13T06:56:49;11.20;97.70
12632;DHT22;6381;45.748;12.106;2022-11-13T06:59:37;11.20;97.70
12632;DHT22;6381;45.748;12.106;2022-11-13T07:02:24;11.20;97.50
12632;DHT22;6381;45.748;12.106;2022-11-13T07:05:11;11.40;97.30
12632;DHT22;6381;45.748;12.106;2022-11-13T07:07:58;11.50;97.10
12632;DHT22;6381;45.748;12.106;2022-11-13T07:10:52;11.40;97.30
12632;DHT22;6381;45.748;12.106;2022-11-13T07:13:58;11.60;97.10
12632;DHT22;6381;45.748;12.106;2022-11-13T07:17:03;11.60;96.90
12632;DHT22;6381;45.748;12.106;2022-11-13T07:19:54;11.60;96.90
12632;DHT22;6381;45.748;12.106;2022-11-13T07:22:42;11.70;96.80
12632;DHT22;6381;45.748;12.106;2022-11-13T07:25:29;11.80;96.90
12632;DHT22;6381;45.748;12.106;2022-11-13T07:28:17;11.80;96.80
12632;DHT22;6381;45.748;12.106;2022-11-13T07:31:06;11.90;96.40
12632;DHT22;6381;45.748;12.106;2022-11-13T07:33:55;12.00;96.40
12632;DHT22;6381;45.748;12.106;2022-11-13T07:36:43;12.10;95.70
12632;DHT22;6381;45.748;12.106;2022-11-13T07:39:30;12.30;95.30
12632;DHT22;6381;45.748;12.106;2022-11-13T07:42:17;12.40;94.60
12632;DHT22;6381;45.748;12.106;2022-11-13T07:45:22;12.50;94.30
12632;DHT22;6381;45.748;12.106;2022-11-13T07:48:11;12.60;93.90
12632;DHT22;6381;45.748;12.106;2022-11-13T07:51:16;12.80;93.60
12632;DHT22;6381;45.748;12.106;2022-11-13T07:54:04;12.80;93.10
12632;DHT22;6381;45.748;12.106;2022-11-13T07:56:52;12.90;92.80
12632;DHT22;6381;45.748;12.106;2022-11-13T07:59:40;13.00;92.50
12632;DHT22;6381;45.748;12.106;2022-11-13T08:02:27;13.00;92.00
12632;DHT22;6381;45.748;12.106;2022-11-13T08:05:18;13.10;91.70
12632;DHT22;6381;45.748;12.106;2022-11-13T08:08:06;13.30;91.70
12632;DHT22;6381;45.748;12.106;2022-11-13T08:10:54;13.40;91.30
12632;DHT22;6381;45.748;12.106;2022-11-13T08:13:41;13.30;90.90
12632;DHT22;6381;45.748;12.106;2022-11-13T08:16:28;13.50;90.70
12632;DHT22;6381;45.748;12.106;2022-11-13T08:19:16;13.70;90.60
12632;DHT22;6381;45.748;12.106;2022-11-13T08:22:05;13.80;90.40
12632;DHT22;6381;45.748;12.106;2022-11-13T08:25:10;13.70;90.10
12632;DHT22;6381;45.748;12.106;2022-11-13T08:27:57;13.80;90.40
12632;DHT22;6381;45.748;12.106;2022-11-13T08:30:45;13.80;90.40
12632;DHT22;6381;45.748;12.106;2022-11-13T08:33:33;13.80;89.30
12632;DHT22;6381;45.748;12.106;2022-11-13T08:36:20;14.00;89.70
12632;DHT22;6381;45.748;12.106;2022-11-13T08:39:09;14.00;90.30
12632;DHT22;6381;45.748;12.106;2022-11-13T08:41:56;14.00;89.80
12632;DHT22;6381;45.748;12.106;2022-11-13T08:44:44;14.10;89.20
12632;DHT22;6381;45.748;12.106;2022-11-13T08:47:31;14.20;89.70
12632;DHT22;6381;45.748;12.106;2022-11-13T08:50:18;14.30;88.60
12632;DHT22;6381;45.748;12.106;2022-11-13T08:53:06;14.40;88.30
12632;DHT22;6381;45.748;12.106;2022-11-13T08:55:59;14.50;88.10
12632;DHT22;6381;45.748;12.106;2022-11-13T08:59:04;14.50;88.20
12632;DHT22;6381;45.748;12.106;2022-11-13T09:01:51;14.60;87.90
12632;DHT22;6381;45.748;12.106;2022-11-13T09:04:43;14.70;87.30
12632;DHT22;6381;45.748;12.106;2022-11-13T09:07:30;14.70;88.70
12632;DHT22;6381;45.748;12.106;2022-11-13T09:10:18;14.80;88.30
12632;DHT22;6381;45.748;12.106;2022-11-13T09:13:07;15.00;86.40
12632;DHT22;6381;45.748;12.106;2022-11-13T09:15:57;15.00;85.20
12632;DHT22;6381;45.748;12.106;2022-11-13T09:18:47;14.90;85.60
12632;DHT22;6381;45.748;12.106;2022-11-13T09:21:35;15.10;85.90
12632;DHT22;6381;45.748;12.106;2022-11-13T09:24:22;15.00;82.80
12632;DHT22;6381;45.748;12.106;2022-11-13T09:27:09;15.10;81.00
12632;DHT22;6381;45.748;12.106;2022-11-13T09:29:58;15.10;79.80
12632;DHT22;6381;45.748;12.106;2022-11-13T09:33:04;15.20;81.00
12632;DHT22;6381;45.748;12.106;2022-11-13T09:35:52;15.40;81.30
12632;DHT22;6381;45.748;12.106;2022-11-13T09:38:39;15.60;80.10
12632;DHT22;6381;45.748;12.106;2022-11-13T09:41:29;15.70;80.90
12632;DHT22;6381;45.748;12.106;2022-11-13T09:44:21;15.70;79.30
12632;DHT22;6381;45.748;12.106;2022-11-13T09:47:15;15.90;76.60
12632;DHT22;6381;45.748;12.106;2022-11-13T09:50:11;16.00;75.90
12632;DHT22;6381;45.748;12.106;2022-11-13T09:53:03;16.10;76.20
12632;DHT22;6381;45.748;12.106;2022-11-13T09:55:56;16.00;77.20
12632;DHT22;6381;45.748;12.106;2022-11-13T09:58:53;16.10;76.40
12632;DHT22;6381;45.748;12.106;2022-11-13T10:01:49;16.10;73.90
12632;DHT22;6381;45.748;12.106;2022-11-13T10:04:52;16.00;75.70
12632;DHT22;6381;45.748;12.106;2022-11-13T10:07:51;15.90;74.70
12632;DHT22;6381;45.748;12.106;2022-11-13T10:10:47;16.10;74.80
12632;DHT22;6381;45.748;12.106;2022-11-13T10:13:43;16.40;75.50
12632;DHT22;6381;45.748;12.106;2022-11-13T10:16:35;16.50;74.00
12632;DHT22;6381;45.748;12.106;2022-11-13T10:19:29;16.60;72.70
12632;DHT22;6381;45.748;12.106;2022-11-13T10:22:26;16.60;72.30
12632;DHT22;6381;45.748;12.106;2022-11-13T10:25:20;16.30;73.40
12632;DHT22;6381;45.748;12.106;2022-11-13T10:28:13;16.50;73.90
12632;DHT22;6381;45.748;12.106;2022-11-13T10:31:21;16.90;71.90
12632;DHT22;6381;45.748;12.106;2022-11-13T10:34:11;17.40;72.20
12632;DHT22;6381;45.748;12.106;2022-11-13T10:37:16;17.40;71.30
12632;DHT22;6381;45.748;12.106;2022-11-13T10:40:08;17.60;69.00
12632;DHT22;6381;45.748;12.106;2022-11-13T10:43:05;17.80;70.20
12632;DHT22;6381;45.748;12.106;2022-11-13T10:45:54;18.00;69.20
12632;DHT22;6381;45.748;12.106;2022-11-13T10:48:45;18.20;68.70
12632;DHT22;6381;45.748;12.106;2022-11-13T10:51:32;17.80;67.10
12632;DHT22;6381;45.748;12.106;2022-11-13T10:54:26;18.00;66.20
12632;DHT22;6381;45.748;12.106;2022-11-13T10:57:29;18.20;67.60
12632;DHT22;6381;45.748;12.106;2022-11-13T11:00:20;18.30;66.70
12632;DHT22;6381;45.748;12.106;2022-11-13T11:03:12;18.30;66.70
12632;DHT22;6381;45.748;12.106;2022-11-13T11:06:01;18.00;65.10
12632;DHT22;6381;45.748;12.106;2022-11-13T11:08:48;17.80;65.80
12632;DHT22;6381;45.748;12.106;2022-11-13T11:11:36;18.30;65.70
12632;DHT22;6381;45.748;12.106;2022-11-13T11:14:57;18.70;66.60
12632;DHT22;6381;45.748;12.106;2022-11-13T11:17:50;19.00;64.50
12632;DHT22;6381;45.748;12.106;2022-11-13T11:20:44;18.90;64.20
12632;DHT22;6381;45.748;12.106;2022-11-13T11:23:56;18.90;63.30
12632;DHT22;6381;45.748;12.106;2022-11-13T11:26:48;18.70;62.80
12632;DHT22;6381;45.748;12.106;2022-11-13T11:29:40;18.80;63.00
12632;DHT22;6381;45.748;12.106;2022-11-13T11:32:33;19.30;63.00
12632;DHT22;6381;45.748;12.106;2022-11-13T11:35:25;19.10;60.10
12632;DHT22;6381;45.748;12.106;2022-11-13T11:38:17;19.10;61.70
12632;DHT22;6381;45.748;12.106;2022-11-13T11:41:09;19.50;61.50
12632;DHT22;6381;45.748;12.106;2022-11-13T11:44:07;19.70;60.30
12632;DHT22;6381;45.748;12.106;2022-11-13T11:46:57;19.80;59.30
12632;DHT22;6381;45.748;12.106;2022-11-13T11:49:46;19.60;59.50
12632;DHT22;6381;45.748;12.106;2022-11-13T11:52:44;19.30;58.60
12632;DHT22;6381;45.748;12.106;2022-11-13T11:55:56;19.70;59.10
12632;DHT22;6381;45.748;12.106;2022-11-13T11:59:09;19.30;59.30
12632;DHT22;6381;45.748;12.106;2022-11-13T12:02:45;19.50;58.80
12632;DHT22;6381;45.748;12.106;2022-11-13T12:05:45;19.80;58.80
12632;DHT22;6381;45.748;12.106;2022-11-13T12:08:42;20.10;58.50
12632;DHT22;6381;45.748;12.106;2022-11-13T12:11:33;20.20;57.00
12632;DHT22;6381;45.748;12.106;2022-11-13T12:14:28;20.40;57.50
12632;DHT22;6381;45.748;12.106;2022-11-13T12:17:38;20.40;57.40
12632;DHT22;6381;45.748;12.106;2022-11-13T12:20:34;20.20;57.20
12632;DHT22;6381;45.748;12.106;2022-11-13T12:23:36;20.70;57.00
12632;DHT22;6381;45.748;12.106;2022-11-13T12:26:29;20.90;56.20
12632;DHT22;6381;45.748;12.106;2022-11-13T12:29:38;20.50;56.30
12632;DHT22;6381;45.748;12.106;2022-11-13T12:32:39;20.50;55.90
12632;DHT22;6381;45.748;12.106;2022-11-13T12:35:31;20.10;55.30
12632;DHT22;6381;45.748;12.106;2022-11-13T12:38:29;18.80;56.70
12632;DHT22;6381;45.748;12.106;2022-11-13T12:41:24;18.40;57.90
12632;DHT22;6381;45.748;12.106;2022-11-13T12:44:20;20.20;56.70
12632;DHT22;6381;45.748;12.106;2022-11-13T12:47:09;20.70;55.20
12632;DHT22;6381;45.748;12.106;2022-11-13T12:50:02;19.60;55.70
12632;DHT22;6381;45.748;12.106;2022-11-13T12:53:01;19.80;56.70
12632;DHT22;6381;45.748;12.106;2022-11-13T12:55:57;20.60;56.00
12632;DHT22;6381;45.748;12.106;2022-11-13T12:58:52;20.00;53.70
12632;DHT22;6381;45.748;12.106;2022-11-13T13:02:16;20.30;54.00
12632;DHT22;6381;45.748;12.106;2022-11-13T13:05:26;20.30;54.40
12632;DHT22;6381;45.748;12.106;2022-11-13T13:11:58;19.40;56.20
12632;DHT22;6381;45.748;12.106;2022-11-13T13:14:59;19.00;56.80
12632;DHT22;6381;45.748;12.106;2022-11-13T13:17:48;18.50;57.80
12632;DHT22;6381;45.748;12.106;2022-11-13T13:20:37;18.30;59.20
12632;DHT22;6381;45.748;12.106;2022-11-13T13:23:27;18.20;59.50
12632;DHT22;6381;45.748;12.106;2022-11-13T13:26:18;18.40;59.70
12632;DHT22;6381;45.748;12.106;2022-11-13T13:29:23;18.50;58.80
12632;DHT22;6381;45.748;12.106;2022-11-13T13:32:17;18.20;58.10
12632;DHT22;6381;45.748;12.106;2022-11-13T13:35:13;18.40;58.30
12632;DHT22;6381;45.748;12.106;2022-11-13T13:38:08;19.10;57.60
12632;DHT22;6381;45.748;12.106;2022-11-13T13:41:15;19.60;56.00
12632;DHT22;6381;45.748;12.106;2022-11-13T13:44:21;19.70;55.70
12632;DHT22;6381;45.748;12.106;2022-11-13T13:47:19;20.00;54.70
12632;DHT22;6381;45.748;12.106;2022-11-13T13:50:14;19.40;55.10
12632;DHT22;6381;45.748;12.106;2022-11-13T13:53:02;18.40;56.20
12632;DHT22;6381;45.748;12.106;2022-11-13T13:55:52;18.20;57.10
12632;DHT22;6381;45.748;12.106;2022-11-13T13:58:41;18.80;56.70
12632;DHT22;6381;45.748;12.106;2022-11-13T14:01:32;19.60;55.60
12632;DHT22;6381;45.748;12.106;2022-11-13T14:04:22;19.60;54.30
12632;DHT22;6381;45.748;12.106;2022-11-13T14:07:24;19.40;54.30
12632;DHT22;6381;45.748;12.106;2022-11-13T14:10:16;19.00;55.00
12632;DHT22;6381;45.748;12.106;2022-11-13T14:13:03;19.40;54.50
12632;DHT22;6381;45.748;12.106;2022-11-13T14:16:01;19.80;54.30
12632;DHT22;6381;45.748;12.106;2022-11-13T14:18:50;19.50;53.30
12632;DHT22;6381;45.748;12.106;2022-11-13T14:21:49;20.00;53.20
12632;DHT22;6381;45.748;12.106;2022-11-13T14:24:44;20.00;53.20
12632;DHT22;6381;45.748;12.106;2022-11-13T14:27:34;19.90;52.90
12632;DHT22;6381;45.748;12.106;2022-11-13T14:30:23;20.30;52.90
12632;DHT22;6381;45.748;12.106;2022-11-13T14:33:15;20.20;53.40
12632;DHT22;6381;45.748;12.106;2022-11-13T14:36:05;19.30;54.00
12632;DHT22;6381;45.748;12.106;2022-11-13T14:38:53;18.60;55.10
12632;DHT22;6381;45.748;12.106;2022-11-13T14:41:45;17.90;56.30
12632;DHT22;6381;45.748;12.106;2022-11-13T14:44:34;17.60;57.50
12632;DHT22;6381;45.748;12.106;2022-11-13T14:47:39;17.80;58.30
12632;DHT22;6381;45.748;12.106;2022-11-13T14:50:28;17.40;59.60
12632;DHT22;6381;45.748;12.106;2022-11-13T14:53:27;17.40;60.00
12632;DHT22;6381;45.748;12.106;2022-11-13T14:56:16;17.50;59.80
12632;DHT22;6381;45.748;12.106;2022-11-13T14:59:08;17.00;60.60
12632;DHT22;6381;45.748;12.106;2022-11-13T15:02:01;16.60;61.20
12632;DHT22;6381;45.748;12.106;2022-11-13T15:04:49;16.50;62.00
12632;DHT22;6381;45.748;12.106;2022-11-13T15:07:40;16.30;62.70
12632;DHT22;6381;45.748;12.106;2022-11-13T15:10:30;16.40;63.80
12632;DHT22;6381;45.748;12.106;2022-11-13T15:13:18;16.50;64.60
12632;DHT22;6381;45.748;12.106;2022-11-13T15:16:06;16.60;64.70
12632;DHT22;6381;45.748;12.106;2022-11-13T15:18:56;16.50;65.00
12632;DHT22;6381;45.748;12.106;2022-11-13T15:21:45;16.30;65.00
12632;DHT22;6381;45.748;12.106;2022-11-13T15:24:52;16.30;66.20
12632;DHT22;6381;45.748;12.106;2022-11-13T15:27:59;15.80;67.20
12632;DHT22;6381;45.748;12.106;2022-11-13T15:30:46;15.70;68.90
12632;DHT22;6381;45.748;12.106;2022-11-13T15:33:34;15.50;70.50
12632;DHT22;6381;45.748;12.106;2022-11-13T15:36:21;15.60;71.90
12632;DHT22;6381;45.748;12.106;2022-11-13T15:39:09;15.50;72.20
12632;DHT22;6381;45.748;12.106;2022-11-13T15:42:16;15.40;73.20
12632;DHT22;6381;45.748;12.106;2022-11-13T15:45:08;15.20;74.30
12632;DHT22;6381;45.748;12.106;2022-11-13T15:47:58;15.10;75.30
12632;DHT22;6381;45.748;12.106;2022-11-13T15:50:46;15.00;75.80
12632;DHT22;6381;45.748;12.106;2022-11-13T15:53:33;14.80;77.40
12632;DHT22;6381;45.748;12.106;2022-11-13T15:56:38;14.90;77.80
12632;DHT22;6381;45.748;12.106;2022-11-13T15:59:26;14.90;77.80
12632;DHT22;6381;45.748;12.106;2022-11-13T16:02:14;14.80;77.70
12632;DHT22;6381;45.748;12.106;2022-11-13T16:05:02;14.90;78.30
12632;DHT22;6381;45.748;12.106;2022-11-13T16:07:50;14.70;79.00
12632;DHT22;6381;45.748;12.106;2022-11-13T16:10:38;14.90;79.30
12632;DHT22;6381;45.748;12.106;2022-11-13T16:13:25;15.00;79.20
12632;DHT22;6381;45.748;12.106;2022-11-13T16:16:15;15.30;78.90
12632;DHT22;6381;45.748;12.106;2022-11-13T16:19:10;15.40;79.60
12632;DHT22;6381;45.748;12.106;2022-11-13T16:21:58;15.30;79.90
12632;DHT22;6381;45.748;12.106;2022-11-13T16:24:45;14.90;80.10
12632;DHT22;6381;45.748;12.106;2022-11-13T16:27:32;16.20;82.30
12632;DHT22;6381;45.748;12.106;2022-11-13T16:30:21;15.20;81.80
12632;DHT22;6381;45.748;12.106;2022-11-13T16:33:10;15.20;83.60
12632;DHT22;6381;45.748;12.106;2022-11-13T16:35:59;15.20;84.50
12632;DHT22;6381;45.748;12.106;2022-11-13T16:39:05;15.10;83.70
12632;DHT22;6381;45.748;12.106;2022-11-13T16:41:54;14.60;82.80
12632;DHT22;6381;45.748;12.106;2022-11-13T16:44:42;14.70;82.60
12632;DHT22;6381;45.748;12.106;2022-11-13T16:47:47;14.70;82.60
12632;DHT22;6381;45.748;12.106;2022-11-13T16:50:36;14.80;81.20
12632;DHT22;6381;45.748;12.106;2022-11-13T16:53:25;14.80;80.80
12632;DHT22;6381;45.748;12.106;2022-11-13T16:56:15;14.70;80.40
12632;DHT22;6381;45.748;12.106;2022-11-13T16:59:03;14.80;80.30
12632;DHT22;6381;45.748;12.106;2022-11-13T17:01:53;14.80;82.00
12632;DHT22;6381;45.748;12.106;2022-11-13T17:04:41;14.90;82.40
12632;DHT22;6381;45.748;12.106;2022-11-13T17:07:29;14.80;84.10
12632;DHT22;6381;45.748;12.106;2022-11-13T17:10:20;14.60;84.30
12632;DHT22;6381;45.748;12.106;2022-11-13T17:13:25;14.60;85.80
12632;DHT22;6381;45.748;12.106;2022-11-13T17:16:13;14.70;84.80
12632;DHT22;6381;45.748;12.106;2022-11-13T17:19:01;14.60;86.10
12632;DHT22;6381;45.748;12.106;2022-11-13T17:21:48;14.90;86.30
12632;DHT22;6381;45.748;12.106;2022-11-13T17:24:35;14.80;85.50
12632;DHT22;6381;45.748;12.106;2022-11-13T17:27:24;14.70;86.70
12632;DHT22;6381;45.748;12.106;2022-11-13T17:30:12;14.80;86.60
12632;DHT22;6381;45.748;12.106;2022-11-13T17:33:00;14.50;85.40
12632;DHT22;6381;45.748;12.106;2022-11-13T17:35:52;14.70;86.10
12632;DHT22;6381;45.748;12.106;2022-11-13T17:38:40;14.60;85.50
12632;DHT22;6381;45.748;12.106;2022-11-13T17:41:28;14.50;85.60
12632;DHT22;6381;45.748;12.106;2022-11-13T17:44:17;14.60;85.90
12632;DHT22;6381;45.748;12.106;2022-11-13T17:47:04;14.70;85.30
12632;DHT22;6381;45.748;12.106;2022-11-13T17:49:52;14.40;85.40
12632;DHT22;6381;45.748;12.106;2022-11-13T17:52:51;14.30;85.10
12632;DHT22;6381;45.748;12.106;2022-11-13T17:55:38;14.30;85.30
12632;DHT22;6381;45.748;12.106;2022-11-13T17:58:26;14.30;86.00
12632;DHT22;6381;45.748;12.106;2022-11-13T18:01:17;14.40;86.10
12632;DHT22;6381;45.748;12.106;2022-11-13T18:04:05;14.20;86.20
12632;DHT22;6381;45.748;12.106;2022-11-13T18:06:54;14.10;86.80
12632;DHT22;6381;45.748;12.106;2022-11-13T18:09:59;14.10;87.70